Yingkou, China
Current Conditions -  °F | °C
As of 4:30 AM on Sunday 26 Oct 2014 (Local Time) from ZYTX Reporting Station
Broken Clouds Broken Clouds  
Wind Chill: 40°   Ceiling: 4000
Heat Index: 46°   Visibility: 6mi
Dew Point:   Wind: 16mph
Humidity: 17%   Direction: 340°NNW
Pressure: 30.18"   Gusts: 27mph
Location:  40.67°N, 122.28°E
Report Text: ZYTX 252030Z 34007G12MPS 9999 BKN040 08/M16 Q1022 NOSIG
Loading
Personal Weather Stations






























Interactive Weather Map
Tropical Storm Tracking
New forecast layout! Learn more

10-Day Weather Forecast

Advertisements
Track Severe Weather on mobile